sensor_id;sensor_type;location;lat;lon;timestamp;P1;durP1;ratioP1;P2;durP2;ratioP2
71083;SDS011;58741;52.672;13.548;2022-07-26T05:38:51;3.88;;;2.85;;
71083;SDS011;58741;52.672;13.548;2022-07-26T05:41:17;4.65;;;2.67;;
71083;SDS011;58741;52.672;13.548;2022-07-26T05:43:42;3.25;;;2.90;;
71083;SDS011;58741;52.672;13.548;2022-07-26T05:46:08;3.03;;;2.65;;
71083;SDS011;58741;52.672;13.548;2022-07-26T05:48:34;4.05;;;3.00;;
71083;SDS011;58741;52.672;13.548;2022-07-26T05:51:00;4.43;;;3.22;;
71083;SDS011;58741;52.672;13.548;2022-07-26T05:53:26;3.35;;;2.88;;
71083;SDS011;58741;52.672;13.548;2022-07-26T05:55:51;4.07;;;2.45;;
71083;SDS011;58741;52.672;13.548;2022-07-26T05:58:17;3.90;;;3.05;;
71083;SDS011;58741;52.672;13.548;2022-07-26T06:00:42;3.03;;;2.60;;
71083;SDS011;58741;52.672;13.548;2022-07-26T06:03:08;3.45;;;2.70;;
71083;SDS011;58741;52.672;13.548;2022-07-26T06:05:53;2.55;;;2.25;;
71083;SDS011;58741;52.672;13.548;2022-07-26T06:08:20;5.45;;;2.05;;
71083;SDS011;58741;52.672;13.548;2022-07-26T06:13:22;7.47;;;3.00;;
71083;SDS011;58741;52.672;13.548;2022-07-26T06:15:47;2.28;;;2.00;;
71083;SDS011;58741;52.672;13.548;2022-07-26T06:18:13;5.25;;;2.78;;
71083;SDS011;58741;52.672;13.548;2022-07-26T06:20:39;4.30;;;2.75;;
71083;SDS011;58741;52.672;13.548;2022-07-26T06:23:07;3.47;;;2.30;;
71083;SDS011;58741;52.672;13.548;2022-07-26T06:25:32;4.32;;;2.58;;
71083;SDS011;58741;52.672;13.548;2022-07-26T06:28:00;3.53;;;2.35;;
71083;SDS011;58741;52.672;13.548;2022-07-26T06:30:29;4.50;;;2.25;;
71083;SDS011;58741;52.672;13.548;2022-07-26T06:32:55;5.70;;;2.30;;
71083;SDS011;58741;52.672;13.548;2022-07-26T06:35:20;2.80;;;2.30;;
71083;SDS011;58741;52.672;13.548;2022-07-26T06:37:48;4.93;;;2.22;;
71083;SDS011;58741;52.672;13.548;2022-07-26T06:40:14;3.67;;;2.22;;
71083;SDS011;58741;52.672;13.548;2022-07-26T06:42:39;5.57;;;1.80;;
71083;SDS011;58741;52.672;13.548;2022-07-26T06:45:05;3.53;;;2.10;;
71083;SDS011;58741;52.672;13.548;2022-07-26T06:47:31;7.47;;;3.03;;
71083;SDS011;58741;52.672;13.548;2022-07-26T06:49:57;5.63;;;2.38;;
71083;SDS011;58741;52.672;13.548;2022-07-26T06:52:23;4.95;;;1.92;;
71083;SDS011;58741;52.672;13.548;2022-07-26T06:54:48;3.35;;;1.90;;
71083;SDS011;58741;52.672;13.548;2022-07-26T06:57:14;7.45;;;2.85;;
71083;SDS011;58741;52.672;13.548;2022-07-26T06:59:39;5.32;;;2.08;;
71083;SDS011;58741;52.672;13.548;2022-07-26T07:02:05;3.30;;;1.85;;
71083;SDS011;58741;52.672;13.548;2022-07-26T07:04:31;3.88;;;2.08;;
71083;SDS011;58741;52.672;13.548;2022-07-26T07:06:57;5.55;;;2.22;;
71083;SDS011;58741;52.672;13.548;2022-07-26T07:09:33;3.72;;;2.13;;
71083;SDS011;58741;52.672;13.548;2022-07-26T07:12:00;5.43;;;2.38;;
71083;SDS011;58741;52.672;13.548;2022-07-26T07:14:29;5.75;;;2.20;;
71083;SDS011;58741;52.672;13.548;2022-07-26T07:16:55;2.70;;;1.77;;
71083;SDS011;58741;52.672;13.548;2022-07-26T07:19:21;4.07;;;2.00;;
71083;SDS011;58741;52.672;13.548;2022-07-26T07:21:47;4.15;;;1.92;;
71083;SDS011;58741;52.672;13.548;2022-07-26T07:24:13;4.65;;;2.17;;
71083;SDS011;58741;52.672;13.548;2022-07-26T07:26:39;5.93;;;2.10;;
71083;SDS011;58741;52.672;13.548;2022-07-26T07:29:05;3.95;;;2.28;;
71083;SDS011;58741;52.672;13.548;2022-07-26T07:31:31;4.50;;;2.05;;
71083;SDS011;58741;52.672;13.548;2022-07-26T07:33:56;3.72;;;1.80;;
71083;SDS011;58741;52.672;13.548;2022-07-26T07:36:22;3.08;;;1.67;;
71083;SDS011;58741;52.672;13.548;2022-07-26T07:38:48;4.10;;;1.77;;
71083;SDS011;58741;52.672;13.548;2022-07-26T07:41:13;4.15;;;1.65;;
71083;SDS011;58741;52.672;13.548;2022-07-26T07:43:39;4.40;;;1.90;;
71083;SDS011;58741;52.672;13.548;2022-07-26T07:46:05;4.82;;;2.10;;
71083;SDS011;58741;52.672;13.548;2022-07-26T07:48:30;6.47;;;1.92;;
71083;SDS011;58741;52.672;13.548;2022-07-26T07:50:56;3.03;;;1.98;;
71083;SDS011;58741;52.672;13.548;2022-07-26T07:53:21;2.63;;;1.67;;
71083;SDS011;58741;52.672;13.548;2022-07-26T07:55:47;4.22;;;1.80;;
71083;SDS011;58741;52.672;13.548;2022-07-26T07:58:13;5.18;;;2.15;;
71083;SDS011;58741;52.672;13.548;2022-07-26T08:00:39;6.85;;;2.40;;
71083;SDS011;58741;52.672;13.548;2022-07-26T08:03:05;5.32;;;1.95;;
71083;SDS011;58741;52.672;13.548;2022-07-26T08:05:31;2.58;;;1.67;;
71083;SDS011;58741;52.672;13.548;2022-07-26T08:07:56;3.13;;;1.75;;
71083;SDS011;58741;52.672;13.548;2022-07-26T08:10:22;3.00;;;1.70;;
71083;SDS011;58741;52.672;13.548;2022-07-26T08:12:47;2.15;;;1.33;;
71083;SDS011;58741;52.672;13.548;2022-07-26T08:15:13;4.65;;;1.70;;
71083;SDS011;58741;52.672;13.548;2022-07-26T08:17:38;3.03;;;1.58;;
71083;SDS011;58741;52.672;13.548;2022-07-26T08:20:04;1.98;;;1.48;;
71083;SDS011;58741;52.672;13.548;2022-07-26T08:22:30;4.43;;;2.10;;
71083;SDS011;58741;52.672;13.548;2022-07-26T08:24:55;3.85;;;1.58;;
71083;SDS011;58741;52.672;13.548;2022-07-26T08:27:21;1.90;;;1.40;;
71083;SDS011;58741;52.672;13.548;2022-07-26T08:29:46;2.72;;;1.67;;
71083;SDS011;58741;52.672;13.548;2022-07-26T08:32:12;3.83;;;1.42;;
71083;SDS011;58741;52.672;13.548;2022-07-26T08:34:38;2.97;;;1.75;;
71083;SDS011;58741;52.672;13.548;2022-07-26T08:37:03;2.63;;;1.40;;
71083;SDS011;58741;52.672;13.548;2022-07-26T08:39:29;2.90;;;1.40;;
71083;SDS011;58741;52.672;13.548;2022-07-26T08:41:54;3.90;;;1.50;;
71083;SDS011;58741;52.672;13.548;2022-07-26T08:44:20;5.13;;;1.55;;
71083;SDS011;58741;52.672;13.548;2022-07-26T08:46:45;4.05;;;1.60;;
71083;SDS011;58741;52.672;13.548;2022-07-26T08:49:11;2.47;;;1.30;;
71083;SDS011;58741;52.672;13.548;2022-07-26T08:51:39;3.03;;;1.35;;
71083;SDS011;58741;52.672;13.548;2022-07-26T08:54:10;3.65;;;1.40;;
71083;SDS011;58741;52.672;13.548;2022-07-26T08:56:48;2.50;;;1.23;;
71083;SDS011;58741;52.672;13.548;2022-07-26T08:59:15;2.03;;;1.20;;
71083;SDS011;58741;52.672;13.548;2022-07-26T09:01:52;4.13;;;1.40;;
71083;SDS011;58741;52.672;13.548;2022-07-26T09:04:27;2.90;;;1.30;;
71083;SDS011;58741;52.672;13.548;2022-07-26T09:07:02;6.30;;;1.60;;
71083;SDS011;58741;52.672;13.548;2022-07-26T09:09:33;4.85;;;1.30;;
71083;SDS011;58741;52.672;13.548;2022-07-26T09:12:15;1.98;;;1.20;;
71083;SDS011;58741;52.672;13.548;2022-07-26T09:14:41;2.80;;;1.30;;
71083;SDS011;58741;52.672;13.548;2022-07-26T09:17:10;3.20;;;1.30;;
71083;SDS011;58741;52.672;13.548;2022-07-26T09:19:36;3.63;;;1.17;;
71083;SDS011;58741;52.672;13.548;2022-07-26T09:22:05;2.78;;;1.10;;
71083;SDS011;58741;52.672;13.548;2022-07-26T09:24:34;2.28;;;1.20;;
71083;SDS011;58741;52.672;13.548;2022-07-26T09:27:03;4.47;;;1.40;;
71083;SDS011;58741;52.672;13.548;2022-07-26T09:29:40;3.42;;;1.02;;
71083;SDS011;58741;52.672;13.548;2022-07-26T09:32:17;5.93;;;1.23;;
71083;SDS011;58741;52.672;13.548;2022-07-26T09:34:48;3.95;;;1.25;;
71083;SDS011;58741;52.672;13.548;2022-07-26T09:37:33;2.88;;;1.42;;
71083;SDS011;58741;52.672;13.548;2022-07-26T09:40:01;1.67;;;1.02;;
71083;SDS011;58741;52.672;13.548;2022-07-26T09:42:29;2.10;;;1.05;;
71083;SDS011;58741;52.672;13.548;2022-07-26T09:44:55;1.98;;;1.27;;
71083;SDS011;58741;52.672;13.548;2022-07-26T09:47:21;2.53;;;1.15;;
71083;SDS011;58741;52.672;13.548;2022-07-26T09:50:08;6.72;;;1.30;;
71083;SDS011;58741;52.672;13.548;2022-07-26T09:52:38;7.65;;;1.38;;
71083;SDS011;58741;52.672;13.548;2022-07-26T09:55:04;3.03;;;1.40;;
71083;SDS011;58741;52.672;13.548;2022-07-26T09:57:31;1.67;;;1.10;;
71083;SDS011;58741;52.672;13.548;2022-07-26T09:59:59;1.48;;;0.90;;
71083;SDS011;58741;52.672;13.548;2022-07-26T10:02:29;1.70;;;1.02;;
71083;SDS011;58741;52.672;13.548;2022-07-26T10:04:55;1.80;;;0.85;;
71083;SDS011;58741;52.672;13.548;2022-07-26T10:07:20;4.55;;;1.52;;
71083;SDS011;58741;52.672;13.548;2022-07-26T10:09:51;2.50;;;1.42;;
71083;SDS011;58741;52.672;13.548;2022-07-26T10:12:21;1.95;;;1.33;;
71083;SDS011;58741;52.672;13.548;2022-07-26T10:14:50;1.40;;;1.15;;
71083;SDS011;58741;52.672;13.548;2022-07-26T10:19:54;2.25;;;1.20;;
71083;SDS011;58741;52.672;13.548;2022-07-26T10:22:21;2.80;;;1.35;;
71083;SDS011;58741;52.672;13.548;2022-07-26T10:24:48;2.13;;;1.30;;
71083;SDS011;58741;52.672;13.548;2022-07-26T10:30:24;2.88;;;1.20;;
71083;SDS011;58741;52.672;13.548;2022-07-26T10:32:58;1.85;;;1.20;;
71083;SDS011;58741;52.672;13.548;2022-07-26T10:35:29;2.30;;;1.48;;
71083;SDS011;58741;52.672;13.548;2022-07-26T10:38:05;1.42;;;0.98;;
71083;SDS011;58741;52.672;13.548;2022-07-26T10:40:32;5.50;;;1.50;;
71083;SDS011;58741;52.672;13.548;2022-07-26T10:43:08;3.47;;;1.40;;
71083;SDS011;58741;52.672;13.548;2022-07-26T10:45:35;5.22;;;1.10;;
71083;SDS011;58741;52.672;13.548;2022-07-26T10:48:20;4.20;;;1.10;;
71083;SDS011;58741;52.672;13.548;2022-07-26T10:50:50;2.10;;;1.10;;
71083;SDS011;58741;52.672;13.548;2022-07-26T10:53:21;1.23;;;0.82;;
71083;SDS011;58741;52.672;13.548;2022-07-26T10:55:51;3.97;;;1.50;;
71083;SDS011;58741;52.672;13.548;2022-07-26T10:58:19;1.83;;;1.00;;
71083;SDS011;58741;52.672;13.548;2022-07-26T11:00:55;2.05;;;0.95;;
71083;SDS011;58741;52.672;13.548;2022-07-26T11:03:38;2.85;;;1.00;;
71083;SDS011;58741;52.672;13.548;2022-07-26T11:06:38;2.60;;;1.30;;
71083;SDS011;58741;52.672;13.548;2022-07-26T11:08:57;2.15;;;0.82;;
71083;SDS011;58741;52.672;13.548;2022-07-26T11:11:26;2.22;;;1.10;;
71083;SDS011;58741;52.672;13.548;2022-07-26T11:14:07;4.15;;;1.30;;
71083;SDS011;58741;52.672;13.548;2022-07-26T11:16:39;2.08;;;1.10;;
71083;SDS011;58741;52.672;13.548;2022-07-26T11:21:46;2.70;;;1.27;;
71083;SDS011;58741;52.672;13.548;2022-07-26T11:24:18;3.42;;;1.10;;
71083;SDS011;58741;52.672;13.548;2022-07-26T11:26:45;2.45;;;1.05;;
71083;SDS011;58741;52.672;13.548;2022-07-26T11:29:11;3.28;;;1.17;;
71083;SDS011;58741;52.672;13.548;2022-07-26T11:31:38;3.30;;;1.30;;
71083;SDS011;58741;52.672;13.548;2022-07-26T11:34:16;1.73;;;1.00;;
71083;SDS011;58741;52.672;13.548;2022-07-26T11:36:46;2.42;;;1.27;;
71083;SDS011;58741;52.672;13.548;2022-07-26T11:39:20;1.45;;;0.90;;
71083;SDS011;58741;52.672;13.548;2022-07-26T11:41:45;3.90;;;1.20;;
71083;SDS011;58741;52.672;13.548;2022-07-26T11:44:15;1.92;;;0.90;;
71083;SDS011;58741;52.672;13.548;2022-07-26T11:46:45;3.65;;;1.40;;
71083;SDS011;58741;52.672;13.548;2022-07-26T11:49:25;3.22;;;1.10;;
71083;SDS011;58741;52.672;13.548;2022-07-26T11:51:53;1.95;;;1.25;;
71083;SDS011;58741;52.672;13.548;2022-07-26T11:54:21;3.90;;;1.20;;
71083;SDS011;58741;52.672;13.548;2022-07-26T11:56:48;3.83;;;1.05;;
71083;SDS011;58741;52.672;13.548;2022-07-26T11:59:25;4.15;;;1.23;;
71083;SDS011;58741;52.672;13.548;2022-07-26T12:01:53;4.05;;;1.10;;
71083;SDS011;58741;52.672;13.548;2022-07-26T12:04:23;2.92;;;1.20;;
71083;SDS011;58741;52.672;13.548;2022-07-26T12:06:53;2.38;;;1.13;;
71083;SDS011;58741;52.672;13.548;2022-07-26T12:09:39;3.50;;;1.55;;
71083;SDS011;58741;52.672;13.548;2022-07-26T12:12:23;2.70;;;1.67;;
71083;SDS011;58741;52.672;13.548;2022-07-26T12:15:09;3.90;;;1.73;;
71083;SDS011;58741;52.672;13.548;2022-07-26T12:17:34;3.17;;;1.30;;
71083;SDS011;58741;52.672;13.548;2022-07-26T12:20:13;3.20;;;1.33;;
71083;SDS011;58741;52.672;13.548;2022-07-26T12:22:40;2.85;;;1.30;;
71083;SDS011;58741;52.672;13.548;2022-07-26T12:25:24;1.77;;;1.30;;
71083;SDS011;58741;52.672;13.548;2022-07-26T12:27:51;2.47;;;1.20;;
71083;SDS011;58741;52.672;13.548;2022-07-26T12:30:17;2.17;;;1.42;;
71083;SDS011;58741;52.672;13.548;2022-07-26T12:32:43;2.40;;;1.30;;
71083;SDS011;58741;52.672;13.548;2022-07-26T12:35:12;1.67;;;1.10;;
71083;SDS011;58741;52.672;13.548;2022-07-26T12:40:13;2.40;;;1.25;;
71083;SDS011;58741;52.672;13.548;2022-07-26T12:42:41;1.85;;;1.20;;
71083;SDS011;58741;52.672;13.548;2022-07-26T12:45:10;1.10;;;0.77;;
71083;SDS011;58741;52.672;13.548;2022-07-26T12:47:37;1.13;;;0.80;;
71083;SDS011;58741;52.672;13.548;2022-07-26T12:50:05;2.40;;;1.00;;
71083;SDS011;58741;52.672;13.548;2022-07-26T12:52:32;0.80;;;0.80;;
71083;SDS011;58741;52.672;13.548;2022-07-26T12:54:58;1.38;;;1.00;;
71083;SDS011;58741;52.672;13.548;2022-07-26T12:57:24;1.08;;;0.70;;
71083;SDS011;58741;52.672;13.548;2022-07-26T12:59:51;1.13;;;0.90;;
71083;SDS011;58741;52.672;13.548;2022-07-26T13:02:17;3.65;;;0.93;;
71083;SDS011;58741;52.672;13.548;2022-07-26T13:04:43;2.08;;;0.93;;
71083;SDS011;58741;52.672;13.548;2022-07-26T13:07:09;1.40;;;1.05;;
71083;SDS011;58741;52.672;13.548;2022-07-26T13:09:34;2.35;;;0.55;;
71083;SDS011;58741;52.672;13.548;2022-07-26T13:12:01;1.23;;;0.70;;
71083;SDS011;58741;52.672;13.548;2022-07-26T13:14:27;1.00;;;0.90;;
71083;SDS011;58741;52.672;13.548;2022-07-26T13:16:53;1.13;;;0.50;;
71083;SDS011;58741;52.672;13.548;2022-07-26T13:19:19;1.42;;;0.80;;
71083;SDS011;58741;52.672;13.548;2022-07-26T13:21:45;1.02;;;0.80;;
71083;SDS011;58741;52.672;13.548;2022-07-26T13:24:10;1.02;;;0.90;;
71083;SDS011;58741;52.672;13.548;2022-07-26T13:26:36;2.38;;;0.77;;
71083;SDS011;58741;52.672;13.548;2022-07-26T13:29:01;0.65;;;0.65;;
71083;SDS011;58741;52.672;13.548;2022-07-26T13:31:27;0.75;;;0.75;;
71083;SDS011;58741;52.672;13.548;2022-07-26T13:33:53;2.55;;;0.75;;
71083;SDS011;58741;52.672;13.548;2022-07-26T13:36:19;2.13;;;0.85;;
71083;SDS011;58741;52.672;13.548;2022-07-26T13:38:44;0.98;;;0.70;;
71083;SDS011;58741;52.672;13.548;2022-07-26T13:41:10;0.60;;;0.60;;
71083;SDS011;58741;52.672;13.548;2022-07-26T13:43:35;0.80;;;0.80;;
71083;SDS011;58741;52.672;13.548;2022-07-26T13:46:01;0.95;;;0.80;;
71083;SDS011;58741;52.672;13.548;2022-07-26T13:48:26;1.20;;;0.82;;
71083;SDS011;58741;52.672;13.548;2022-07-26T13:50:53;1.48;;;0.77;;
71083;SDS011;58741;52.672;13.548;2022-07-26T13:53:18;0.82;;;0.80;;
71083;SDS011;58741;52.672;13.548;2022-07-26T13:55:44;1.10;;;0.80;;
71083;SDS011;58741;52.672;13.548;2022-07-26T13:58:10;1.10;;;0.90;;
71083;SDS011;58741;52.672;13.548;2022-07-26T14:00:35;1.05;;;0.93;;
71083;SDS011;58741;52.672;13.548;2022-07-26T14:03:01;2.38;;;0.93;;
71083;SDS011;58741;52.672;13.548;2022-07-26T14:05:27;0.73;;;0.65;;
71083;SDS011;58741;52.672;13.548;2022-07-26T14:07:52;1.80;;;0.85;;
71083;SDS011;58741;52.672;13.548;2022-07-26T14:10:18;0.80;;;0.80;;
71083;SDS011;58741;52.672;13.548;2022-07-26T14:12:45;1.67;;;1.33;;
71083;SDS011;58741;52.672;13.548;2022-07-26T14:15:11;0.70;;;0.70;;
71083;SDS011;58741;52.672;13.548;2022-07-26T14:17:37;3.78;;;1.00;;
71083;SDS011;58741;52.672;13.548;2022-07-26T14:20:03;1.00;;;0.90;;
71083;SDS011;58741;52.672;13.548;2022-07-26T14:22:29;1.20;;;1.00;;
71083;SDS011;58741;52.672;13.548;2022-07-26T14:24:55;0.70;;;0.70;;
71083;SDS011;58741;52.672;13.548;2022-07-26T14:27:20;2.22;;;1.05;;
71083;SDS011;58741;52.672;13.548;2022-07-26T14:29:46;0.88;;;0.70;;
71083;SDS011;58741;52.672;13.548;2022-07-26T14:32:12;0.73;;;0.60;;
71083;SDS011;58741;52.672;13.548;2022-07-26T14:34:39;0.93;;;0.90;;
71083;SDS011;58741;52.672;13.548;2022-07-26T14:37:05;1.10;;;0.70;;
71083;SDS011;58741;52.672;13.548;2022-07-26T14:39:30;0.70;;;0.60;;
71083;SDS011;58741;52.672;13.548;2022-07-26T14:41:57;1.65;;;0.95;;
71083;SDS011;58741;52.672;13.548;2022-07-26T14:44:24;3.33;;;0.90;;
71083;SDS011;58741;52.672;13.548;2022-07-26T14:46:50;0.90;;;0.60;;
71083;SDS011;58741;52.672;13.548;2022-07-26T14:49:16;0.82;;;0.80;;
71083;SDS011;58741;52.672;13.548;2022-07-26T14:51:42;0.88;;;0.60;;
71083;SDS011;58741;52.672;13.548;2022-07-26T14:54:08;0.90;;;0.70;;
71083;SDS011;58741;52.672;13.548;2022-07-26T14:56:33;1.45;;;0.70;;
71083;SDS011;58741;52.672;13.548;2022-07-26T14:58:59;0.95;;;0.65;;
71083;SDS011;58741;52.672;13.548;2022-07-26T15:01:24;1.42;;;1.10;;
71083;SDS011;58741;52.672;13.548;2022-07-26T15:03:51;1.33;;;0.80;;
71083;SDS011;58741;52.672;13.548;2022-07-26T15:06:16;0.77;;;0.75;;
71083;SDS011;58741;52.672;13.548;2022-07-26T15:08:42;0.98;;;0.73;;
71083;SDS011;58741;52.672;13.548;2022-07-26T15:11:07;1.05;;;0.60;;
71083;SDS011;58741;52.672;13.548;2022-07-26T15:13:33;0.70;;;0.60;;
71083;SDS011;58741;52.672;13.548;2022-07-26T15:15:59;1.13;;;0.63;;
71083;SDS011;58741;52.672;13.548;2022-07-26T15:18:25;1.38;;;0.60;;
71083;SDS011;58741;52.672;13.548;2022-07-26T15:20:50;1.40;;;0.70;;
71083;SDS011;58741;52.672;13.548;2022-07-26T15:23:16;2.13;;;0.80;;
71083;SDS011;58741;52.672;13.548;2022-07-26T15:25:42;0.82;;;0.60;;
71083;SDS011;58741;52.672;13.548;2022-07-26T15:28:08;1.70;;;0.60;;
71083;SDS011;58741;52.672;13.548;2022-07-26T15:30:34;1.25;;;0.70;;
71083;SDS011;58741;52.672;13.548;2022-07-26T15:32:59;1.02;;;0.50;;
71083;SDS011;58741;52.672;13.548;2022-07-26T15:35:26;1.00;;;0.80;;
71083;SDS011;58741;52.672;13.548;2022-07-26T15:37:53;3.10;;;0.65;;
71083;SDS011;58741;52.672;13.548;2022-07-26T15:40:18;1.20;;;0.70;;
71083;SDS011;58741;52.672;13.548;2022-07-26T15:42:47;1.17;;;0.60;;
71083;SDS011;58741;52.672;13.548;2022-07-26T15:45:15;2.03;;;0.70;;
71083;SDS011;58741;52.672;13.548;2022-07-26T15:47:41;1.02;;;0.70;;
71083;SDS011;58741;52.672;13.548;2022-07-26T15:50:08;0.98;;;0.55;;
71083;SDS011;58741;52.672;13.548;2022-07-26T15:52:37;1.35;;;0.80;;
71083;SDS011;58741;52.672;13.548;2022-07-26T15:55:04;1.00;;;0.60;;
71083;SDS011;58741;52.672;13.548;2022-07-26T15:57:31;0.95;;;0.60;;
71083;SDS011;58741;52.672;13.548;2022-07-26T15:59:56;0.65;;;0.50;;
71083;SDS011;58741;52.672;13.548;2022-07-26T16:02:22;1.75;;;0.40;;
71083;SDS011;58741;52.672;13.548;2022-07-26T16:04:47;1.13;;;0.73;;
71083;SDS011;58741;52.672;13.548;2022-07-26T16:07:13;0.73;;;0.40;;
71083;SDS011;58741;52.672;13.548;2022-07-26T16:09:39;1.60;;;0.77;;
71083;SDS011;58741;52.672;13.548;2022-07-26T16:12:04;0.73;;;0.43;;
71083;SDS011;58741;52.672;13.548;2022-07-26T16:14:30;2.05;;;0.60;;
71083;SDS011;58741;52.672;13.548;2022-07-26T16:16:56;1.52;;;0.40;;
71083;SDS011;58741;52.672;13.548;2022-07-26T16:19:21;0.55;;;0.40;;
71083;SDS011;58741;52.672;13.548;2022-07-26T16:21:47;0.50;;;0.40;;
71083;SDS011;58741;52.672;13.548;2022-07-26T16:24:13;1.02;;;0.40;;
71083;SDS011;58741;52.672;13.548;2022-07-26T16:26:39;0.80;;;0.65;;
71083;SDS011;58741;52.672;13.548;2022-07-26T16:29:06;1.50;;;0.40;;
71083;SDS011;58741;52.672;13.548;2022-07-26T16:31:32;1.25;;;0.70;;
71083;SDS011;58741;52.672;13.548;2022-07-26T16:33:58;1.10;;;0.68;;
71083;SDS011;58741;52.672;13.548;2022-07-26T16:36:24;0.88;;;0.47;;
71083;SDS011;58741;52.672;13.548;2022-07-26T16:38:49;1.20;;;0.47;;
71083;SDS011;58741;52.672;13.548;2022-07-26T16:41:15;0.90;;;0.47;;
71083;SDS011;58741;52.672;13.548;2022-07-26T16:43:40;1.00;;;0.40;;
71083;SDS011;58741;52.672;13.548;2022-07-26T16:46:06;1.10;;;0.60;;
71083;SDS011;58741;52.672;13.548;2022-07-26T16:48:32;0.95;;;0.50;;
71083;SDS011;58741;52.672;13.548;2022-07-26T16:50:58;1.85;;;0.68;;
71083;SDS011;58741;52.672;13.548;2022-07-26T16:53:23;1.05;;;0.60;;
71083;SDS011;58741;52.672;13.548;2022-07-26T16:55:49;0.70;;;0.55;;
71083;SDS011;58741;52.672;13.548;2022-07-26T16:58:15;1.20;;;0.60;;
71083;SDS011;58741;52.672;13.548;2022-07-26T17:00:41;0.95;;;0.60;;
71083;SDS011;58741;52.672;13.548;2022-07-26T17:03:07;0.52;;;0.45;;
71083;SDS011;58741;52.672;13.548;2022-07-26T17:05:32;1.05;;;0.40;;
71083;SDS011;58741;52.672;13.548;2022-07-26T17:07:58;0.45;;;0.40;;
71083;SDS011;58741;52.672;13.548;2022-07-26T17:10:23;0.80;;;0.40;;
71083;SDS011;58741;52.672;13.548;2022-07-26T17:12:49;0.80;;;0.40;;
71083;SDS011;58741;52.672;13.548;2022-07-26T17:15:14;1.65;;;0.50;;
71083;SDS011;58741;52.672;13.548;2022-07-26T17:17:40;1.13;;;0.50;;
71083;SDS011;58741;52.672;13.548;2022-07-26T17:20:06;0.50;;;0.38;;
71083;SDS011;58741;52.672;13.548;2022-07-26T17:22:32;0.50;;;0.50;;
71083;SDS011;58741;52.672;13.548;2022-07-26T17:24:57;0.55;;;0.40;;
71083;SDS011;58741;52.672;13.548;2022-07-26T17:27:23;0.30;;;0.30;;
71083;SDS011;58741;52.672;13.548;2022-07-26T17:29:48;0.80;;;0.40;;
71083;SDS011;58741;52.672;13.548;2022-07-26T17:32:15;1.25;;;0.40;;
71083;SDS011;58741;52.672;13.548;2022-07-26T17:34:41;2.47;;;0.40;;
71083;SDS011;58741;52.672;13.548;2022-07-26T17:37:06;0.60;;;0.40;;
71083;SDS011;58741;52.672;13.548;2022-07-26T17:39:32;1.27;;;0.40;;
71083;SDS011;58741;52.672;13.548;2022-07-26T17:41:57;1.08;;;0.35;;
71083;SDS011;58741;52.672;13.548;2022-07-26T17:44:23;1.67;;;0.55;;
71083;SDS011;58741;52.672;13.548;2022-07-26T17:46:49;1.02;;;0.40;;
71083;SDS011;58741;52.672;13.548;2022-07-26T17:49:15;0.40;;;0.30;;
71083;SDS011;58741;52.672;13.548;2022-07-26T17:51:40;1.38;;;0.30;;
71083;SDS011;58741;52.672;13.548;2022-07-26T17:54:06;1.25;;;0.40;;
71083;SDS011;58741;52.672;13.548;2022-07-26T17:56:32;2.38;;;0.60;;
71083;SDS011;58741;52.672;13.548;2022-07-26T17:58:58;0.55;;;0.35;;
71083;SDS011;58741;52.672;13.548;2022-07-26T18:01:24;1.02;;;0.40;;
71083;SDS011;58741;52.672;13.548;2022-07-26T18:03:49;0.95;;;0.32;;
71083;SDS011;58741;52.672;13.548;2022-07-26T18:06:15;0.45;;;0.30;;
71083;SDS011;58741;52.672;13.548;2022-07-26T18:08:42;0.30;;;0.30;;
71083;SDS011;58741;52.672;13.548;2022-07-26T18:11:07;0.80;;;0.30;;
71083;SDS011;58741;52.672;13.548;2022-07-26T18:13:33;0.63;;;0.40;;
71083;SDS011;58741;52.672;13.548;2022-07-26T18:15:59;0.90;;;0.30;;
71083;SDS011;58741;52.672;13.548;2022-07-26T18:18:25;0.40;;;0.30;;
71083;SDS011;58741;52.672;13.548;2022-07-26T18:20:51;0.68;;;0.40;;
71083;SDS011;58741;52.672;13.548;2022-07-26T18:23:17;1.25;;;0.60;;
71083;SDS011;58741;52.672;13.548;2022-07-26T18:25:43;1.05;;;0.50;;
71083;SDS011;58741;52.672;13.548;2022-07-26T18:28:09;0.75;;;0.30;;
71083;SDS011;58741;52.672;13.548;2022-07-26T18:30:35;2.80;;;0.70;;
71083;SDS011;58741;52.672;13.548;2022-07-26T18:33:00;0.73;;;0.47;;
71083;SDS011;58741;52.672;13.548;2022-07-26T18:35:26;0.40;;;0.40;;
71083;SDS011;58741;52.672;13.548;2022-07-26T18:37:52;0.68;;;0.40;;
71083;SDS011;58741;52.672;13.548;2022-07-26T18:40:21;0.60;;;0.30;;
71083;SDS011;58741;52.672;13.548;2022-07-26T18:42:49;0.30;;;0.30;;
71083;SDS011;58741;52.672;13.548;2022-07-26T18:45:15;0.90;;;0.40;;
71083;SDS011;58741;52.672;13.548;2022-07-26T18:47:40;0.50;;;0.50;;
71083;SDS011;58741;52.672;13.548;2022-07-26T18:50:07;0.68;;;0.40;;
71083;SDS011;58741;52.672;13.548;2022-07-26T18:52:34;0.45;;;0.40;;
71083;SDS011;58741;52.672;13.548;2022-07-26T18:55:01;2.72;;;0.70;;
71083;SDS011;58741;52.672;13.548;2022-07-26T18:57:30;0.52;;;0.30;;
71083;SDS011;58741;52.672;13.548;2022-07-26T18:59:56;1.27;;;0.68;;
71083;SDS011;58741;52.672;13.548;2022-07-26T19:02:21;1.90;;;0.50;;
71083;SDS011;58741;52.672;13.548;2022-07-26T19:04:47;0.60;;;0.40;;
71083;SDS011;58741;52.672;13.548;2022-07-26T19:07:12;0.38;;;0.35;;
71083;SDS011;58741;52.672;13.548;2022-07-26T19:09:38;0.82;;;0.50;;
71083;SDS011;58741;52.672;13.548;2022-07-26T19:12:03;0.52;;;0.35;;
71083;SDS011;58741;52.672;13.548;2022-07-26T19:14:29;1.35;;;0.68;;
71083;SDS011;58741;52.672;13.548;2022-07-26T19:16:55;1.27;;;0.43;;
71083;SDS011;58741;52.672;13.548;2022-07-26T19:19:20;0.40;;;0.40;;
71083;SDS011;58741;52.672;13.548;2022-07-26T19:21:46;0.50;;;0.38;;
71083;SDS011;58741;52.672;13.548;2022-07-26T19:24:13;0.85;;;0.60;;
71083;SDS011;58741;52.672;13.548;2022-07-26T19:26:39;1.25;;;0.50;;
71083;SDS011;58741;52.672;13.548;2022-07-26T19:29:04;1.35;;;0.50;;
71083;SDS011;58741;52.672;13.548;2022-07-26T19:31:29;1.02;;;0.43;;
71083;SDS011;58741;52.672;13.548;2022-07-26T19:33:55;1.23;;;0.60;;
71083;SDS011;58741;52.672;13.548;2022-07-26T19:36:21;0.65;;;0.40;;
71083;SDS011;58741;52.672;13.548;2022-07-26T19:38:46;1.85;;;0.60;;
71083;SDS011;58741;52.672;13.548;2022-07-26T19:41:12;0.63;;;0.40;;
71083;SDS011;58741;52.672;13.548;2022-07-26T19:43:38;1.02;;;0.50;;
71083;SDS011;58741;52.672;13.548;2022-07-26T19:46:03;1.08;;;0.70;;
71083;SDS011;58741;52.672;13.548;2022-07-26T19:48:29;1.50;;;0.50;;
71083;SDS011;58741;52.672;13.548;2022-07-26T19:50:54;0.98;;;0.50;;
71083;SDS011;58741;52.672;13.548;2022-07-26T19:53:20;2.03;;;0.70;;
71083;SDS011;58741;52.672;13.548;2022-07-26T19:55:46;0.88;;;0.47;;
71083;SDS011;58741;52.672;13.548;2022-07-26T19:58:11;0.90;;;0.32;;
71083;SDS011;58741;52.672;13.548;2022-07-26T20:00:37;0.82;;;0.50;;
71083;SDS011;58741;52.672;13.548;2022-07-26T20:03:02;0.70;;;0.40;;
71083;SDS011;58741;52.672;13.548;2022-07-26T20:05:28;1.27;;;0.68;;
71083;SDS011;58741;52.672;13.548;2022-07-26T20:07:53;0.93;;;0.45;;
71083;SDS011;58741;52.672;13.548;2022-07-26T20:10:19;0.93;;;0.60;;
71083;SDS011;58741;52.672;13.548;2022-07-26T20:12:44;1.67;;;0.70;;
71083;SDS011;58741;52.672;13.548;2022-07-26T20:15:10;1.45;;;0.50;;
71083;SDS011;58741;52.672;13.548;2022-07-26T20:17:36;1.00;;;0.60;;
71083;SDS011;58741;52.672;13.548;2022-07-26T20:20:03;1.40;;;0.52;;
71083;SDS011;58741;52.672;13.548;2022-07-26T20:22:30;0.88;;;0.50;;
71083;SDS011;58741;52.672;13.548;2022-07-26T20:24:56;1.10;;;0.50;;